createdAt,value
2023-02-19T00:01:26.028Z,98161.94
2023-02-19T00:03:54.665Z,98152.53
2023-02-19T00:06:22.638Z,98154.16
2023-02-19T00:08:50.100Z,98164.81
2023-02-19T00:11:18.954Z,98161.94
2023-02-19T00:13:48.092Z,98163.81
2023-02-19T00:16:16.534Z,98161.13
2023-02-19T00:18:44.742Z,98156.81
2023-02-19T00:21:12.378Z,98156.00
2023-02-19T00:23:39.955Z,98154.16
2023-02-19T00:26:17.673Z,98154.16
2023-02-19T00:28:49.954Z,98152.53
2023-02-19T00:31:27.775Z,98154.16
2023-02-19T00:33:56.638Z,98159.47
2023-02-19T00:36:24.372Z,98154.16
2023-02-19T00:38:52.194Z,98159.69
2023-02-19T00:41:20.717Z,98157.84
2023-02-19T00:43:49.583Z,98156.63
2023-02-19T00:46:17.732Z,98152.53
2023-02-19T00:48:45.542Z,98145.56
2023-02-19T00:51:12.988Z,98147.22
2023-02-19T00:53:40.635Z,98152.53
2023-02-19T00:56:08.293Z,98139.44
2023-02-19T00:58:36.727Z,98140.25
2023-02-19T01:01:04.382Z,98137.59
2023-02-19T01:03:32.141Z,98138.19
2023-02-19T01:05:59.985Z,98134.91
2023-02-19T01:08:27.542Z,98145.56
2023-02-19T01:10:54.657Z,98140.47
2023-02-19T01:13:22.061Z,98139.22
2023-02-19T01:15:49.189Z,98147.22
2023-02-19T01:18:16.954Z,98137.59
2023-02-19T01:20:45.045Z,98136.56
2023-02-19T01:23:13.118Z,98134.91
2023-02-19T01:25:41.945Z,98128.97
2023-02-19T01:28:10.765Z,98117.34
2023-02-19T01:30:38.696Z,98117.34
2023-02-19T01:33:07.095Z,98116.53
2023-02-19T01:35:34.910Z,98107.50
2023-02-19T01:38:02.328Z,98113.63
2023-02-19T01:40:29.819Z,98109.34
2023-02-19T01:42:57.190Z,98105.66
2023-02-19T01:45:24.289Z,98106.06
2023-02-19T01:47:57.926Z,98094.22
2023-02-19T01:50:28.149Z,98091.53
2023-02-19T01:52:55.603Z,98089.91
2023-02-19T01:55:23.563Z,98094.41
2023-02-19T01:57:53.493Z,98081.09
2023-02-19T02:00:20.851Z,98088.06
2023-02-19T02:02:51.129Z,98087.44
2023-02-19T02:05:28.689Z,98082.94
2023-02-19T02:08:14.728Z,98076.81
2023-02-19T02:10:43.077Z,98075.78
2023-02-19T02:13:10.480Z,98076.81
2023-02-19T02:15:47.569Z,98075.78
2023-02-19T02:18:23.188Z,98075.78
2023-02-19T02:21:10.908Z,98070.47
2023-02-19T02:23:47.922Z,98066.16
2023-02-19T02:26:27.757Z,98069.84
2023-02-19T02:29:11.641Z,98068.22
2023-02-19T02:31:44.088Z,98071.50
2023-02-19T02:34:17.921Z,98070.69
2023-02-19T02:36:49.829Z,98062.91
2023-02-19T02:39:19.630Z,98061.03
2023-02-19T02:42:13.132Z,98056.53
2023-02-19T02:44:41.582Z,98056.34
2023-02-19T02:47:30.263Z,98053.88
2023-02-19T02:50:07.164Z,98059.19
2023-02-19T02:52:56.116Z,98051.22
2023-02-19T02:55:24.850Z,98053.88
2023-02-19T02:57:52.243Z,98045.91
2023-02-19T03:00:19.784Z,98044.09
2023-02-19T03:02:46.845Z,98043.25
2023-02-19T03:05:38.302Z,98038.75
2023-02-19T03:08:21.082Z,98035.88
2023-02-19T03:10:51.475Z,98035.88
2023-02-19T03:13:39.972Z,98030.56
2023-02-19T03:16:31.507Z,98034.25
2023-02-19T03:19:18.137Z,98039.56
2023-02-19T03:22:10.193Z,98038.53
2023-02-19T03:25:16.647Z,98035.88
2023-02-19T03:27:46.159Z,98036.72
2023-02-19T03:30:16.616Z,98035.88
2023-02-19T03:32:47.107Z,98027.91
2023-02-19T03:35:25.826Z,98034.06
2023-02-19T03:38:12.568Z,98034.25
2023-02-19T03:41:02.580Z,98036.91
2023-02-19T03:43:45.388Z,98046.50
2023-02-19T03:46:23.303Z,98043.03
2023-02-19T03:49:01.493Z,98035.06
2023-02-19T03:51:28.641Z,98036.72
2023-02-19T03:54:05.888Z,98039.56
2023-02-19T03:56:51.791Z,98030.56
2023-02-19T03:59:19.292Z,98030.56
2023-02-19T04:01:53.669Z,98026.88
2023-02-19T04:04:30.434Z,98028.13
2023-02-19T04:06:58.478Z,98028.13
2023-02-19T04:09:29.927Z,98018.28
2023-02-19T04:11:57.286Z,98015.63
2023-02-19T04:14:34.860Z,98012.16
2023-02-19T04:17:03.598Z,98017.47
2023-02-19T04:19:33.562Z,98019.28
2023-02-19T04:22:01.627Z,98019.28
2023-02-19T04:24:35.644Z,98010.31
2023-02-19T04:27:03.556Z,98020.94
2023-02-19T04:29:31.086Z,98019.09
2023-02-19T04:31:58.311Z,98022.81
2023-02-19T04:34:25.836Z,98012.16
2023-02-19T04:36:53.038Z,98012.16
2023-02-19T04:39:20.490Z,98006.00
2023-02-19T04:41:47.895Z,98000.69
2023-02-19T04:44:15.443Z,97999.66
2023-02-19T04:46:43.232Z,98005.00
2023-02-19T04:49:10.731Z,97992.69
2023-02-19T04:51:38.303Z,97984.72
2023-02-19T04:54:06.034Z,97981.06
2023-02-19T04:56:33.278Z,97967.13
2023-02-19T04:59:00.775Z,97966.09
2023-02-19T05:01:27.902Z,97965.91
2023-02-19T05:03:55.373Z,97957.31
2023-02-19T05:06:22.526Z,97959.78
2023-02-19T05:08:49.939Z,97953.63
2023-02-19T05:11:17.015Z,97949.13
2023-02-19T05:13:44.513Z,97940.09
2023-02-19T05:16:13.886Z,97933.97
2023-02-19T05:18:42.141Z,97938.50
2023-02-19T05:21:10.721Z,97944.63
2023-02-19T05:23:38.650Z,97939.28
2023-02-19T05:26:06.909Z,97934.78
2023-02-19T05:28:34.641Z,97938.50
2023-02-19T05:31:05.120Z,97928.66
2023-02-19T05:33:32.643Z,97928.66
2023-02-19T05:35:59.837Z,97935.63
2023-02-19T05:38:27.300Z,97934.78
2023-02-19T05:40:54.418Z,97940.09
2023-02-19T05:43:21.907Z,97946.28
2023-02-19T05:45:49.022Z,97931.13
2023-02-19T05:48:16.510Z,97939.50
2023-02-19T05:50:43.634Z,97939.50
2023-02-19T05:53:11.122Z,97940.09
2023-02-19T05:55:38.243Z,97932.34
2023-02-19T05:58:05.645Z,97936.84
2023-02-19T06:00:33.864Z,97932.13
2023-02-19T06:03:03.079Z,97921.72
2023-02-19T06:05:30.300Z,97927.84
2023-02-19T06:07:57.709Z,97933.97
2023-02-19T06:10:25.031Z,97929.47
2023-02-19T06:12:53.375Z,97922.53
2023-02-19T06:15:20.835Z,97925.19
2023-02-19T06:17:49.066Z,97930.50
2023-02-19T06:20:16.386Z,97926.81
2023-02-19T06:22:43.742Z,97932.13
2023-02-19T06:25:12.649Z,97941.16
2023-02-19T06:27:40.010Z,97936.03
2023-02-19T06:30:07.501Z,97927.84
2023-02-19T06:32:34.840Z,97929.47
2023-02-19T06:35:01.970Z,97935.00
2023-02-19T06:37:29.815Z,97929.91
2023-02-19T06:39:56.985Z,97931.53
2023-02-19T06:42:25.251Z,97922.53
2023-02-19T06:44:52.465Z,97930.50
2023-02-19T06:47:20.039Z,97915.34
2023-02-19T06:49:47.365Z,97915.56
2023-02-19T06:52:14.728Z,97910.22
2023-02-19T06:54:43.160Z,97910.22
2023-02-19T06:57:10.572Z,97915.56
2023-02-19T06:59:37.729Z,97920.88
2023-02-19T07:02:05.271Z,97916.59
2023-02-19T07:04:32.652Z,97918.22
2023-02-19T07:07:00.241Z,97914.94
2023-02-19T07:09:28.506Z,97910.22
2023-02-19T07:11:56.002Z,97908.63
2023-02-19T07:14:23.274Z,97913.94
2023-02-19T07:16:51.213Z,97911.88
2023-02-19T07:19:18.345Z,97911.06
2023-02-19T07:21:45.852Z,97915.56
2023-02-19T07:24:13.217Z,97920.06
2023-02-19T07:26:40.599Z,97920.69
2023-02-19T07:29:09.131Z,97916.16
2023-02-19T07:31:36.545Z,97906.56
2023-02-19T07:34:04.985Z,97908.19
2023-02-19T07:36:32.346Z,97918.84
2023-02-19T07:38:59.734Z,97907.38
2023-02-19T07:41:27.550Z,97906.56
2023-02-19T07:43:54.717Z,97906.56
2023-02-19T07:46:22.658Z,97905.75
2023-02-19T07:48:49.781Z,97895.94
2023-02-19T07:51:19.114Z,97897.53
2023-02-19T07:53:46.562Z,97898.59
2023-02-19T07:56:14.221Z,97893.88
2023-02-19T07:58:41.821Z,97889.38
2023-02-19T08:01:11.555Z,97884.84
2023-02-19T08:03:39.256Z,97885.09
2023-02-19T08:06:07.053Z,97883.25
2023-02-19T08:08:34.335Z,97874.66
2023-02-19T08:11:21.167Z,97876.06
2023-02-19T08:13:49.196Z,97882.44
2023-02-19T08:16:29.625Z,97881.59
2023-02-19T08:19:04.368Z,97884.06
2023-02-19T08:21:34.228Z,97885.28
2023-02-19T08:24:01.550Z,97886.91
2023-02-19T08:26:29.626Z,97887.94
2023-02-19T08:28:56.987Z,97887.94
2023-02-19T08:31:25.079Z,97900.44
2023-02-19T08:33:52.366Z,97901.25
2023-02-19T08:36:19.793Z,97906.56
2023-02-19T08:38:47.210Z,97905.53
2023-02-19T08:41:15.098Z,97906.56
2023-02-19T08:43:42.792Z,97907.38
2023-02-19T08:46:11.305Z,97907.38
2023-02-19T08:48:39.009Z,97908.19
2023-02-19T08:51:08.557Z,97903.09
2023-02-19T08:53:36.700Z,97898.59
2023-02-19T08:56:15.581Z,97899.59
2023-02-19T08:58:43.520Z,97895.94
2023-02-19T09:01:12.946Z,97897.78
2023-02-19T09:03:40.509Z,97894.28
2023-02-19T09:06:08.231Z,97899.41
2023-02-19T09:08:35.490Z,97907.38
2023-02-19T09:11:04.556Z,97902.25
2023-02-19T09:13:32.600Z,97897.97
2023-02-19T09:16:00.304Z,97913.75
2023-02-19T09:18:27.414Z,97904.91
2023-02-19T09:20:54.811Z,97910.22
2023-02-19T09:23:22.164Z,97919.25
2023-02-19T09:25:56.410Z,97914.75
2023-02-19T09:28:23.801Z,97915.56
2023-02-19T09:30:51.301Z,97919.25
2023-02-19T09:33:18.506Z,97915.56
2023-02-19T09:35:45.834Z,97920.88
2023-02-19T09:38:13.256Z,97926.19
2023-02-19T09:40:41.208Z,97929.91
2023-02-19T09:43:09.916Z,97935.22
2023-02-19T09:45:38.141Z,97932.56
2023-02-19T09:48:06.355Z,97949.53
2023-02-19T09:50:36.118Z,97940.53
2023-02-19T09:53:04.900Z,97950.38
2023-02-19T09:55:34.819Z,97945.84
2023-02-19T09:58:06.514Z,97949.31
2023-02-19T10:00:36.066Z,97961.00
2023-02-19T10:03:14.819Z,97960.78
2023-02-19T10:05:42.618Z,97967.94
2023-02-19T10:08:15.430Z,97970.81
2023-02-19T10:10:43.888Z,97982.28
2023-02-19T10:13:17.392Z,97986.75
2023-02-19T10:15:50.575Z,98003.56
2023-02-19T10:18:19.185Z,98006.41
2023-02-19T10:20:47.596Z,98011.75
2023-02-19T10:23:15.240Z,98012.56
2023-02-19T10:25:59.159Z,98019.53
2023-02-19T10:28:30.484Z,98015.00
2023-02-19T10:30:58.988Z,98016.03
2023-02-19T10:33:26.389Z,98028.50
2023-02-19T10:35:54.570Z,98026.03
2023-02-19T10:38:23.816Z,98036.50
2023-02-19T10:40:56.527Z,98034.63
2023-02-19T10:43:31.619Z,98046.13
2023-02-19T10:46:01.156Z,98036.28
2023-02-19T10:48:30.613Z,98046.75
2023-02-19T10:51:05.014Z,98038.75
2023-02-19T10:53:40.770Z,98033.22
2023-02-19T10:56:08.358Z,98039.56
2023-02-19T10:58:37.808Z,98051.84
2023-02-19T11:01:16.452Z,98052.69
2023-02-19T11:03:45.641Z,98060.66
2023-02-19T11:06:14.238Z,98062.47
2023-02-19T11:08:49.687Z,98065.34
2023-02-19T11:11:23.402Z,98081.09
2023-02-19T11:13:50.800Z,98076.81
2023-02-19T11:16:18.212Z,98082.13
2023-02-19T11:18:54.357Z,98090.94
2023-02-19T11:21:28.907Z,98094.41
2023-02-19T11:23:56.363Z,98088.25
2023-02-19T11:26:25.230Z,98092.78
2023-02-19T11:28:56.439Z,98096.44
2023-02-19T11:31:26.576Z,98105.03
2023-02-19T11:34:04.231Z,98102.38
2023-02-19T11:36:31.661Z,98101.38
2023-02-19T11:39:00.972Z,98111.41
2023-02-19T11:41:40.434Z,98113.03
2023-02-19T11:44:16.636Z,98121.00
2023-02-19T11:46:56.236Z,98118.34
2023-02-19T11:49:29.305Z,98122.66
2023-02-19T11:51:59.888Z,98133.28
2023-02-19T11:54:42.463Z,98137.59
2023-02-19T11:57:17.029Z,98135.97
2023-02-19T11:59:48.367Z,98149.25
2023-02-19T12:02:21.758Z,98147.59
2023-02-19T12:04:57.906Z,98150.47
2023-02-19T12:07:54.357Z,98154.16
2023-02-19T12:10:32.494Z,98162.31
2023-02-19T12:13:19.840Z,98158.66
2023-02-19T12:15:52.704Z,98163.16
2023-02-19T12:18:55.505Z,98167.63
2023-02-19T12:21:28.484Z,98178.28
2023-02-19T12:24:15.399Z,98180.94
2023-02-19T12:27:01.953Z,98176.66
2023-02-19T12:29:29.266Z,98180.94
2023-02-19T12:32:00.009Z,98176.66
2023-02-19T12:34:36.189Z,98180.31
2023-02-19T12:37:03.259Z,98188.91
2023-02-19T12:39:49.119Z,98195.91
2023-02-19T12:42:25.387Z,98194.25
2023-02-19T12:44:57.728Z,98197.53
2023-02-19T12:47:28.409Z,98200.19
2023-02-19T12:50:05.571Z,98204.50
2023-02-19T12:52:37.305Z,98206.53
2023-02-19T12:55:13.963Z,98205.50
2023-02-19T12:57:41.372Z,98204.88
2023-02-19T13:00:17.720Z,98206.53
2023-02-19T13:02:59.496Z,98207.53
2023-02-19T13:05:47.376Z,98213.09
2023-02-19T13:08:19.971Z,98223.91
2023-02-19T13:10:48.554Z,98224.94
2023-02-19T13:13:18.545Z,98223.28
2023-02-19T13:15:48.506Z,98233.94
2023-02-19T13:18:27.817Z,98237.63
2023-02-19T13:20:56.365Z,98241.28
2023-02-19T13:23:43.731Z,98244.97
2023-02-19T13:26:29.552Z,98257.25
2023-02-19T13:28:59.603Z,98268.69
2023-02-19T13:31:45.300Z,98268.91
2023-02-19T13:34:31.185Z,98274.03
2023-02-19T13:36:58.938Z,98276.91
2023-02-19T13:39:27.590Z,98284.88
2023-02-19T13:41:57.163Z,98288.53
2023-02-19T13:44:32.172Z,98284.25
2023-02-19T13:47:00.576Z,98286.91
2023-02-19T13:49:27.648Z,98292.22
2023-02-19T13:51:56.358Z,98294.88
2023-02-19T13:54:49.554Z,98303.88
2023-02-19T13:57:19.602Z,98305.88
2023-02-19T13:59:48.265Z,98321.00
2023-02-19T14:02:21.532Z,98316.50
2023-02-19T14:04:51.699Z,98322.69
2023-02-19T14:07:19.024Z,98315.69
2023-02-19T14:09:46.776Z,98318.16
2023-02-19T14:12:15.889Z,98321.84
2023-02-19T14:14:56.084Z,98327.16
2023-02-19T14:17:35.031Z,98328.00
2023-02-19T14:20:02.171Z,98336.16
2023-02-19T14:22:50.140Z,98334.31
2023-02-19T14:25:39.762Z,98341.47
2023-02-19T14:28:10.399Z,98352.75
2023-02-19T14:30:43.558Z,98360.72
2023-02-19T14:33:11.499Z,98360.53
2023-02-19T14:35:44.606Z,98358.72
2023-02-19T14:38:32.284Z,98369.38
2023-02-19T14:40:59.625Z,98364.03
2023-02-19T14:43:27.748Z,98369.38
2023-02-19T14:45:59.091Z,98369.53
2023-02-19T14:48:35.148Z,98379.34
2023-02-19T14:51:06.094Z,98382.84
2023-02-19T14:53:37.579Z,98382.84
2023-02-19T14:56:05.155Z,98372.38
2023-02-19T14:58:33.726Z,98377.53
2023-02-19T15:01:00.798Z,98383.66
2023-02-19T15:03:31.247Z,98380.34
2023-02-19T15:06:12.083Z,98380.34
2023-02-19T15:08:45.169Z,98384.03
2023-02-19T15:11:17.185Z,98386.06
2023-02-19T15:13:48.219Z,98391.38
2023-02-19T15:16:19.619Z,98388.72
2023-02-19T15:18:48.272Z,98397.91
2023-02-19T15:21:26.161Z,98404.69
2023-02-19T15:23:54.944Z,98415.50
2023-02-19T15:26:42.237Z,98411.00
2023-02-19T15:29:11.309Z,98428.63
2023-02-19T15:31:44.990Z,98425.94
2023-02-19T15:34:23.389Z,98420.63
2023-02-19T15:36:52.625Z,98422.66
2023-02-19T15:39:24.427Z,98422.66
2023-02-19T15:41:53.308Z,98427.16
2023-02-19T15:44:29.366Z,98443.13
2023-02-19T15:46:56.995Z,98446.59
2023-02-19T15:49:31.074Z,98453.94
2023-02-19T15:52:03.818Z,98459.25
2023-02-19T15:54:34.366Z,98464.59
2023-02-19T15:57:06.021Z,98473.38
2023-02-19T15:59:33.317Z,98477.06
2023-02-19T16:02:01.361Z,98485.84
2023-02-19T16:04:28.779Z,98489.56
2023-02-19T16:07:02.190Z,98502.00
2023-02-19T16:09:31.000Z,98498.53
2023-02-19T16:12:01.598Z,98508.34
2023-02-19T16:14:30.276Z,98517.97
2023-02-19T16:17:07.374Z,98516.31
2023-02-19T16:19:43.913Z,98524.13
2023-02-19T16:22:12.198Z,98525.13
2023-02-19T16:24:45.203Z,98529.81
2023-02-19T16:27:28.427Z,98532.47
2023-02-19T16:29:55.819Z,98543.09
2023-02-19T16:32:23.583Z,98543.09
2023-02-19T16:34:51.592Z,98554.56
2023-02-19T16:37:30.918Z,98549.22
2023-02-19T16:40:07.093Z,98558.88
2023-02-19T16:42:34.573Z,98567.03
2023-02-19T16:45:01.867Z,98566.03
2023-02-19T16:47:30.191Z,98586.47
2023-02-19T16:49:59.018Z,98588.13
2023-02-19T16:52:26.150Z,98594.25
2023-02-19T16:54:53.577Z,98597.94
2023-02-19T16:57:20.995Z,98610.59
2023-02-19T16:59:48.395Z,98616.91
2023-02-19T17:02:17.974Z,98617.09
2023-02-19T17:04:46.263Z,98622.41
2023-02-19T17:07:14.708Z,98616.28
2023-02-19T17:09:42.089Z,98619.34
2023-02-19T17:12:11.007Z,98625.47
2023-02-19T17:14:38.309Z,98626.28
2023-02-19T17:17:05.478Z,98622.63
2023-02-19T17:19:32.758Z,98630.59
2023-02-19T17:21:59.859Z,98632.44
2023-02-19T17:24:27.097Z,98632.25
2023-02-19T17:26:54.854Z,98639.56
2023-02-19T17:29:22.371Z,98641.25
2023-02-19T17:31:49.450Z,98641.88
2023-02-19T17:34:17.441Z,98644.53
2023-02-19T17:36:45.496Z,98648.81
2023-02-19T17:39:15.184Z,98648.66
2023-02-19T17:41:42.228Z,98653.16
2023-02-19T17:44:09.672Z,98671.13
2023-02-19T17:46:37.321Z,98682.59
2023-02-19T17:49:04.705Z,98679.75
2023-02-19T17:51:31.752Z,98689.34
2023-02-19T17:53:59.026Z,98691.03
2023-02-19T17:56:26.655Z,98688.38
2023-02-19T17:58:54.956Z,98689.00
2023-02-19T18:01:22.298Z,98703.94
2023-02-19T18:03:49.808Z,98698.22
2023-02-19T18:06:16.871Z,98692.09
2023-02-19T18:08:48.840Z,98707.22
2023-02-19T18:11:16.316Z,98705.22
2023-02-19T18:13:43.631Z,98713.03
2023-02-19T18:16:10.721Z,98713.03
2023-02-19T18:18:38.171Z,98732.09
2023-02-19T18:21:09.528Z,98717.13
2023-02-19T18:23:37.181Z,98726.59
2023-02-19T18:26:11.370Z,98732.09
2023-02-19T18:28:39.079Z,98733.94
2023-02-19T18:31:06.495Z,98740.09
2023-02-19T18:33:35.322Z,98752.38
2023-02-19T18:36:02.812Z,98741.38
2023-02-19T18:38:30.427Z,98759.97
2023-02-19T18:40:58.757Z,98744.19
2023-02-19T18:43:26.364Z,98740.53
2023-02-19T18:45:53.467Z,98733.38
2023-02-19T18:48:20.992Z,98743.66
2023-02-19T18:50:48.036Z,98750.63
2023-02-19T18:53:15.542Z,98761.44
2023-02-19T18:55:42.541Z,98750.81
2023-02-19T18:58:09.758Z,98757.97
2023-02-19T19:00:38.002Z,98761.25
2023-02-19T19:03:06.467Z,98763.91
2023-02-19T19:05:33.873Z,98770.69
2023-02-19T19:08:01.826Z,98775.84
2023-02-19T19:10:29.789Z,98779.50
2023-02-19T19:12:57.692Z,98779.31
2023-02-19T19:15:25.019Z,98788.13
2023-02-19T19:17:52.599Z,98794.47
2023-02-19T19:20:20.720Z,98783.44
2023-02-19T19:22:52.316Z,98791.25
2023-02-19T19:25:19.897Z,98793.72
2023-02-19T19:27:47.207Z,98789.88
2023-02-19T19:30:14.415Z,98803.00
2023-02-19T19:32:42.161Z,98799.69
2023-02-19T19:35:09.626Z,98788.66
2023-02-19T19:37:37.014Z,98805.09
2023-02-19T19:40:04.254Z,98808.56
2023-02-19T19:42:31.594Z,98804.53
2023-02-19T19:44:58.623Z,98808.84
2023-02-19T19:47:25.871Z,98822.78
2023-02-19T19:49:53.051Z,98815.44
2023-02-19T19:52:20.284Z,98825.09
2023-02-19T19:54:47.295Z,98822.44
2023-02-19T19:57:15.927Z,98821.22
2023-02-19T19:59:43.678Z,98822.03
2023-02-19T20:02:11.930Z,98825.16
2023-02-19T20:04:38.901Z,98842.59
2023-02-19T20:07:06.302Z,98836.25
2023-02-19T20:09:33.615Z,98845.06
2023-02-19T20:12:01.992Z,98825.59
2023-02-19T20:14:29.194Z,98822.56
2023-02-19T20:16:57.699Z,98817.25
2023-02-19T20:19:24.798Z,98814.38
2023-02-19T20:21:53.538Z,98824.22
2023-02-19T20:24:24.279Z,98830.19
2023-02-19T20:26:53.480Z,98839.81
2023-02-19T20:29:20.651Z,98831.63
2023-02-19T20:31:51.255Z,98846.78
2023-02-19T20:34:18.446Z,98843.94
2023-02-19T20:36:47.230Z,98844.13
2023-02-19T20:39:18.325Z,98842.09
2023-02-19T20:41:48.422Z,98855.81
2023-02-19T20:44:15.896Z,98851.13
2023-02-19T20:46:47.697Z,98858.06
2023-02-19T20:49:15.918Z,98859.91
2023-02-19T20:51:48.187Z,98866.06
2023-02-19T20:54:19.108Z,98865.25
2023-02-19T20:56:50.133Z,98875.06
2023-02-19T20:59:17.834Z,98867.91
2023-02-19T21:01:45.601Z,98878.75
2023-02-19T21:04:13.474Z,98877.09
2023-02-19T21:06:41.649Z,98888.56
2023-02-19T21:09:08.621Z,98887.94
2023-02-19T21:11:35.911Z,98893.06
2023-02-19T21:14:03.013Z,98901.25
2023-02-19T21:16:31.636Z,98895.91
2023-02-19T21:18:58.861Z,98903.25
2023-02-19T21:21:26.669Z,98904.06
2023-02-19T21:23:54.373Z,98920.06
2023-02-19T21:26:22.315Z,98920.44
2023-02-19T21:28:52.610Z,98915.94
2023-02-19T21:31:20.902Z,98929.06
2023-02-19T21:33:47.971Z,98922.06
2023-02-19T21:36:17.876Z,98920.44
2023-02-19T21:38:51.101Z,98924.94
2023-02-19T21:41:18.384Z,98915.47
2023-02-19T21:43:45.451Z,98927.78
2023-02-19T21:46:17.712Z,98921.00
2023-02-19T21:48:47.270Z,98919.31
2023-02-19T21:51:14.937Z,98927.31
2023-02-19T21:53:41.865Z,98922.81
2023-02-19T21:56:10.146Z,98929.78
2023-02-19T21:58:37.168Z,98923.19
2023-02-19T22:01:04.467Z,98930.19
2023-02-19T22:03:31.851Z,98947.16
2023-02-19T22:06:01.117Z,98937.53
2023-02-19T22:08:28.080Z,98935.84
2023-02-19T22:10:55.463Z,98938.69
2023-02-19T22:13:22.422Z,98936.88
2023-02-19T22:15:50.592Z,98944.84
2023-02-19T22:18:17.640Z,98947.88
2023-02-19T22:20:44.969Z,98952.19
2023-02-19T22:23:12.843Z,98950.53
2023-02-19T22:25:40.067Z,98959.53
2023-02-19T22:28:07.768Z,98960.34
2023-02-19T22:30:35.030Z,98959.53
2023-02-19T22:33:02.015Z,98971.38
2023-02-19T22:35:29.372Z,98970.34
2023-02-19T22:37:56.416Z,98971.19
2023-02-19T22:40:23.794Z,98976.50
2023-02-19T22:42:50.735Z,98972.19
2023-02-19T22:45:18.002Z,98973.19
2023-02-19T22:47:46.838Z,98967.06
2023-02-19T22:50:18.598Z,98967.22
2023-02-19T22:52:45.734Z,98966.88
2023-02-19T22:55:13.515Z,98976.22
2023-02-19T22:57:40.483Z,98982.38
2023-02-19T23:00:08.476Z,98980.75
2023-02-19T23:02:36.235Z,98978.25
2023-02-19T23:05:03.617Z,98993.84
2023-02-19T23:07:30.621Z,98991.56
2023-02-19T23:09:57.830Z,98993.41
2023-02-19T23:12:24.774Z,98994.22
2023-02-19T23:14:51.991Z,98992.56
2023-02-19T23:17:19.524Z,99008.53
2023-02-19T23:19:47.638Z,99007.69
2023-02-19T23:22:14.946Z,99008.53
2023-02-19T23:24:42.160Z,99008.53
2023-02-19T23:27:09.216Z,99011.38
2023-02-19T23:29:36.559Z,99006.88
2023-02-19T23:32:03.599Z,98999.06
2023-02-19T23:34:30.949Z,98999.06
2023-02-19T23:36:59.566Z,99002.75
2023-02-19T23:39:26.835Z,99008.88
2023-02-19T23:41:55.384Z,99004.59
2023-02-19T23:44:23.426Z,99014.38
2023-02-19T23:46:51.145Z,99003.75
2023-02-19T23:49:19.160Z,99003.75
2023-02-19T23:51:46.157Z,99004.75
2023-02-19T23:54:13.597Z,99000.25
2023-02-19T23:56:40.665Z,98999.59
2023-02-19T23:59:08.007Z,99002.28
